Time;durP1;ratioP1;P1;durP2;ratioP2;P2;SDS_P1;SDS_P2;PMS_P1;PMS_P2;Temp;Humidity;BMP_temperature;BMP_pressure;BME280_temperature;BME280_humidity;BME280_pressure;Samples;Min_cycle;Max_cycle;Signal;HPM_P1;HPM_P2
2023/03/02 00:01:36;;;;;;;6.20;2.40;;;22.30;85.00;;;;;;4993577;28;20192;-67
2023/03/02 00:04:06;;;;;;;5.57;2.27;;;22.30;84.50;;;;;;4967615;28;20201;-67
2023/03/02 00:06:35;;;;;;;5.77;2.10;;;22.30;84.20;;;;;;4987610;28;20190;-68
2023/03/02 00:09:04;;;;;;;7.10;3.40;;;22.30;84.30;;;;;;4994828;28;20313;-68
2023/03/02 00:11:34;;;;;;;8.40;2.90;;;22.40;84.50;;;;;;5005375;28;20232;-68
2023/03/02 00:14:01;;;;;;;7.07;2.77;;;22.40;83.90;;;;;;5012639;28;20213;-71
2023/03/02 00:16:29;;;;;;;8.13;2.37;;;22.50;84.40;;;;;;5000831;28;20185;-67
2023/03/02 00:18:56;;;;;;;10.00;2.63;;;22.80;83.60;;;;;;5001934;28;20668;-68
2023/03/02 00:21:24;;;;;;;7.10;2.80;;;22.80;84.20;;;;;;4986479;28;20575;-74
2023/03/02 00:23:52;;;;;;;6.20;2.23;;;22.90;83.90;;;;;;5009476;28;20195;-73
2023/03/02 00:26:19;;;;;;;6.93;2.40;;;22.90;84.10;;;;;;4981305;28;20619;-71
2023/03/02 00:28:47;;;;;;;3.33;1.63;;;23.00;82.90;;;;;;4971045;28;20210;-72
2023/03/02 00:31:14;;;;;;;8.70;2.77;;;23.00;80.80;;;;;;4982549;28;20643;-72
2023/03/02 00:33:42;;;;;;;8.43;2.10;;;23.10;80.70;;;;;;4985599;28;20178;-67
2023/03/02 00:36:20;;;;;;;8.33;2.60;;;23.10;78.50;;;;;;4990396;28;20691;-69
2023/03/02 00:38:47;;;;;;;11.83;2.83;;;23.10;78.40;;;;;;4988855;28;20182;-68
2023/03/02 00:41:16;;;;;;;4.93;2.13;;;23.20;78.10;;;;;;4992964;28;20178;-70
2023/03/02 00:43:43;;;;;;;7.37;2.63;;;23.30;77.60;;;;;;4992377;28;20767;-68
2023/03/02 00:46:21;;;;;;;6.70;2.07;;;23.50;76.70;;;;;;4991489;28;20228;-68
2023/03/02 00:48:48;;;;;;;6.17;2.17;;;23.60;75.70;;;;;;4992042;28;20272;-68
2023/03/02 00:51:16;;;;;;;6.93;1.80;;;23.70;75.70;;;;;;4991067;28;20256;-67
2023/03/02 00:53:43;;;;;;;5.20;1.70;;;23.90;74.80;;;;;;4992639;28;20580;-69
2023/03/02 00:56:11;;;;;;;3.40;1.77;;;24.10;73.90;;;;;;4989796;28;20540;-67
2023/03/02 00:58:39;;;;;;;4.63;1.87;;;24.20;75.20;;;;;;4988760;28;20194;-68
2023/03/02 01:01:11;;;;;;;5.53;2.13;;;24.10;75.70;;;;;;4992864;28;20542;-68
2023/03/02 01:03:39;;;;;;;8.10;2.20;;;24.20;75.90;;;;;;4992200;28;20213;-68
2023/03/02 01:06:13;;;;;;;4.50;2.10;;;24.10;75.70;;;;;;4992942;28;20186;-67
2023/03/02 01:08:40;;;;;;;5.00;2.10;;;24.10;73.10;;;;;;4992665;28;20303;-68
2023/03/02 01:11:19;;;;;;;5.83;1.57;;;24.10;73.50;;;;;;4988864;28;20229;-67
2023/03/02 01:13:47;;;;;;;10.10;2.13;;;24.20;73.40;;;;;;4991848;28;20586;-68
2023/03/02 01:16:15;;;;;;;6.63;1.90;;;24.20;73.30;;;;;;4991207;28;20178;-67
2023/03/02 01:18:43;;;;;;;4.87;1.73;;;24.20;72.80;;;;;;4989016;28;20248;-69
2023/03/02 01:21:15;;;;;;;4.87;2.10;;;24.30;72.10;;;;;;4992172;28;20224;-68
2023/03/02 01:23:43;;;;;;;3.90;2.17;;;24.40;71.40;;;;;;4991295;28;20186;-68
2023/03/02 01:26:10;;;;;;;6.70;2.30;;;24.50;71.00;;;;;;4992328;28;20660;-67
2023/03/02 01:28:38;;;;;;;10.77;2.20;;;24.60;71.60;;;;;;4991183;28;20264;-67
2023/03/02 01:31:05;;;;;;;4.70;1.87;;;24.80;71.40;;;;;;4994212;28;20197;-69
2023/03/02 01:33:32;;;;;;;6.53;1.53;;;24.80;70.40;;;;;;4992674;28;20185;-67
2023/03/02 01:36:00;;;;;;;4.90;1.60;;;25.20;70.60;;;;;;4991945;28;20185;-67
2023/03/02 01:38:27;;;;;;;2.87;1.40;;;25.30;68.50;;;;;;4996346;28;20182;-68
2023/03/02 01:40:55;;;;;;;7.13;1.80;;;25.60;68.80;;;;;;4994715;28;20190;-67
2023/03/02 01:43:23;;;;;;;3.97;1.57;;;25.30;65.60;;;;;;4994065;28;20216;-67
2023/03/02 01:46:12;;;;;;;5.83;1.60;;;25.40;65.70;;;;;;4995089;28;20182;-67
2023/03/02 01:48:46;;;;;;;5.43;1.50;;;25.70;66.40;;;;;;4992631;28;20260;-67
2023/03/02 01:51:22;;;;;;;3.73;1.50;;;25.90;64.70;;;;;;4993871;28;20228;-66
2023/03/02 01:54:02;;;;;;;3.33;1.60;;;26.30;63.40;;;;;;4989925;28;20204;-68
2023/03/02 01:56:35;;;;;;;3.80;1.33;;;25.80;65.10;;;;;;4995557;28;20181;-67
2023/03/02 01:59:09;;;;;;;6.23;1.83;;;26.10;65.10;;;;;;4992483;28;20252;-67
2023/03/02 02:01:39;;;;;;;5.17;1.93;;;26.30;65.00;;;;;;4995961;28;20604;-67
2023/03/02 02:04:07;;;;;;;6.03;1.60;;;26.20;64.30;;;;;;4994406;28;20192;-66
2023/03/02 02:07:02;;;;;;;2.70;1.10;;;26.10;64.50;;;;;;4996091;28;20189;-67
2023/03/02 02:09:34;;;;;;;3.77;1.47;;;26.10;64.30;;;;;;4984655;28;20222;-68
2023/03/02 02:12:01;;;;;;;4.37;1.50;;;26.10;63.80;;;;;;5008973;28;20229;-68
2023/03/02 02:14:28;;;;;;;6.60;1.40;;;26.10;63.80;;;;;;4981461;28;20603;-67
2023/03/02 02:16:56;;;;;;;3.27;1.20;;;26.00;63.50;;;;;;5010049;28;20540;-66
2023/03/02 02:20:10;;;;;;;3.03;1.47;;;26.30;63.70;;;;;;5008865;28;20201;-68
2023/03/02 02:22:52;;;;;;;2.07;1.20;;;26.10;63.00;;;;;;4955052;28;20249;-67
2023/03/02 02:25:56;;;;;;;4.40;1.27;;;26.10;63.60;;;;;;4988175;28;20196;-72
2023/03/02 02:28:33;;;;;;;4.80;1.53;;;26.10;63.70;;;;;;4989615;28;20299;-71
2023/03/02 02:31:19;;;;;;;3.63;1.20;;;26.40;63.80;;;;;;4989110;28;20288;-74
2023/03/02 02:33:52;;;;;;;2.60;1.10;;;26.40;62.90;;;;;;4992271;28;20190;-73
2023/03/02 02:36:24;;;;;;;2.40;1.03;;;26.40;63.10;;;;;;4985123;28;20210;-73
2023/03/02 02:38:54;;;;;;;3.97;1.37;;;26.20;63.60;;;;;;4990556;28;20276;-75
2023/03/02 02:41:27;;;;;;;4.40;1.53;;;26.20;63.50;;;;;;4985164;28;20175;-66
2023/03/02 02:43:55;;;;;;;4.10;1.70;;;26.30;63.50;;;;;;4986925;28;20189;-65
2023/03/02 02:46:23;;;;;;;2.83;1.23;;;26.30;63.30;;;;;;4989896;28;20241;-70
2023/03/02 02:48:50;;;;;;;3.17;1.30;;;26.30;64.50;;;;;;4986637;28;20214;-67
2023/03/02 02:51:28;;;;;;;4.60;1.23;;;26.40;64.10;;;;;;4985452;28;20232;-66
2023/03/02 02:54:02;;;;;;;2.20;1.00;;;26.50;62.70;;;;;;4987525;28;20198;-71
2023/03/02 02:56:37;;;;;;;2.33;1.27;;;26.20;63.90;;;;;;4988877;28;20273;-69
2023/03/02 02:59:27;;;;;;;4.83;1.20;;;26.40;64.00;;;;;;4991284;28;20186;-66
2023/03/02 03:01:56;;;;;;;5.87;1.33;;;26.50;63.60;;;;;;4973548;28;20217;-67
2023/03/02 03:04:29;;;;;;;2.20;1.20;;;26.50;63.70;;;;;;4991441;28;20178;-68
2023/03/02 03:07:05;;;;;;;3.90;1.00;;;26.80;63.70;;;;;;4991408;28;20640;-69
2023/03/02 03:09:32;;;;;;;3.60;1.30;;;26.90;62.30;;;;;;4988745;28;20779;-66
2023/03/02 03:12:16;;;;;;;5.73;1.60;;;27.00;62.90;;;;;;4990499;28;20316;-68
2023/03/02 03:14:43;;;;;;;4.50;1.30;;;27.20;62.60;;;;;;4991053;28;20182;-71
2023/03/02 03:17:11;;;;;;;3.77;1.10;;;27.10;62.90;;;;;;4991168;28;20220;-68
2023/03/02 03:19:41;;;;;;;3.53;1.20;;;27.10;61.70;;;;;;4990450;28;20178;-65
2023/03/02 03:22:11;;;;;;;3.93;1.50;;;27.50;61.50;;;;;;4994891;28;20701;-69
2023/03/02 03:24:39;;;;;;;4.73;1.40;;;27.30;61.40;;;;;;4990086;28;20175;-66
2023/03/02 03:27:08;;;;;;;4.77;1.20;;;27.10;61.60;;;;;;4988828;28;20550;-65
2023/03/02 03:29:38;;;;;;;2.57;1.00;;;26.90;61.90;;;;;;4987517;28;20225;-66
2023/03/02 03:32:06;;;;;;;3.00;1.00;;;27.70;60.50;;;;;;4989496;28;20699;-67
2023/03/02 03:34:39;;;;;;;3.77;1.23;;;27.80;59.20;;;;;;4992819;28;20188;-69
2023/03/02 03:37:12;;;;;;;5.37;1.30;;;28.00;58.20;;;;;;4989868;28;20276;-66
2023/03/02 03:39:39;;;;;;;3.87;1.17;;;28.00;58.00;;;;;;4992645;28;20209;-67
2023/03/02 03:42:07;;;;;;;4.73;1.30;;;27.90;58.40;;;;;;4991056;28;20182;-66
2023/03/02 03:44:35;;;;;;;2.27;0.97;;;27.60;58.40;;;;;;4982179;28;20193;-66
2023/03/02 03:47:02;;;;;;;6.70;2.00;;;27.30;61.10;;;;;;4987539;28;20205;-67
2023/03/02 03:49:29;;;;;;;6.17;1.60;;;27.10;61.40;;;;;;4985251;28;20218;-67
2023/03/02 03:51:57;;;;;;;3.17;1.13;;;27.30;61.20;;;;;;4989408;28;20269;-69
2023/03/02 03:54:24;;;;;;;8.50;4.27;;;27.60;59.40;;;;;;4987677;28;20217;-68
2023/03/02 03:56:52;;;;;;;4.77;1.20;;;28.40;58.30;;;;;;4973205;28;20201;-67
2023/03/02 03:59:24;;;;;;;4.50;0.80;;;28.70;56.50;;;;;;4989995;28;20189;-66
2023/03/02 04:01:55;;;;;;;2.73;0.90;;;28.90;56.30;;;;;;4991856;28;20250;-68
2023/03/02 04:04:31;;;;;;;1.87;1.10;;;28.80;55.70;;;;;;4973860;28;20201;-70
2023/03/02 04:06:59;;;;;;;2.25;1.00;;;29.30;54.50;;;;;;4985942;28;20240;-66
2023/03/02 04:09:26;;;;;;;4.27;1.10;;;29.10;54.10;;;;;;4993044;28;20226;-67
2023/03/02 04:11:56;;;;;;;4.65;1.00;;;29.20;54.00;;;;;;4988085;28;20596;-66
2023/03/02 04:14:24;;;;;;;5.45;1.50;;;29.10;53.10;;;;;;4991113;28;20605;-67
2023/03/02 04:16:53;;;;;;;10.50;1.98;;;29.60;52.90;;;;;;4994183;28;20185;-66
2023/03/02 04:19:20;;;;;;;2.37;1.20;;;29.30;53.30;;;;;;4992328;28;20224;-65
2023/03/02 04:21:51;;;;;;;3.20;1.02;;;29.40;53.40;;;;;;4994423;28;20565;-66
2023/03/02 04:24:20;;;;;;;2.17;0.90;;;29.40;53.30;;;;;;4995037;28;20213;-66
2023/03/02 04:26:49;;;;;;;2.97;0.80;;;29.30;54.50;;;;;;4994431;28;20170;-69
2023/03/02 04:29:17;;;;;;;2.90;1.00;;;29.10;54.30;;;;;;4998147;28;20644;-67
2023/03/02 04:31:45;;;;;;;3.22;1.17;;;29.30;53.80;;;;;;4996191;28;20659;-67
2023/03/02 04:34:12;;;;;;;4.50;1.23;;;29.30;54.00;;;;;;5006158;28;20272;-67
2023/03/02 04:36:40;;;;;;;2.47;0.90;;;29.30;54.00;;;;;;5001588;28;20182;-69
2023/03/02 04:39:09;;;;;;;2.83;1.13;;;29.90;52.40;;;;;;4993211;28;20180;-67
2023/03/02 04:41:37;;;;;;;3.95;1.08;;;29.80;52.00;;;;;;4988423;28;20555;-66
2023/03/02 04:44:04;;;;;;;3.63;1.35;;;29.70;51.80;;;;;;5002276;28;20181;-70
2023/03/02 04:46:33;;;;;;;2.65;0.90;;;29.80;51.90;;;;;;5000816;28;20185;-66
2023/03/02 04:49:00;;;;;;;4.00;0.80;;;29.60;52.70;;;;;;4991081;28;20228;-68
2023/03/02 04:51:34;;;;;;;2.17;0.80;;;29.90;52.60;;;;;;5008833;28;20173;-69
2023/03/02 04:54:05;;;;;;;1.33;0.70;;;29.70;52.40;;;;;;4999594;28;20360;-68
2023/03/02 04:56:33;;;;;;;3.78;1.00;;;29.40;52.20;;;;;;4992225;28;20178;-66
2023/03/02 04:59:01;;;;;;;3.40;0.77;;;29.30;52.50;;;;;;4996916;28;20185;-70
2023/03/02 05:01:28;;;;;;;2.45;1.00;;;29.50;53.10;;;;;;5001900;28;20186;-67
2023/03/02 05:03:56;;;;;;;3.28;0.95;;;29.90;52.00;;;;;;5007415;28;20189;-67
2023/03/02 05:06:24;;;;;;;1.85;0.80;;;29.60;52.70;;;;;;4981036;28;20280;-66
2023/03/02 05:08:52;;;;;;;3.30;1.20;;;29.80;52.60;;;;;;4992447;28;20745;-70
2023/03/02 05:11:23;;;;;;;5.10;0.90;;;29.40;53.10;;;;;;4997130;28;20316;-72
2023/03/02 05:13:53;;;;;;;3.03;0.95;;;29.50;53.90;;;;;;4987400;28;20675;-66
2023/03/02 05:16:21;;;;;;;3.55;1.08;;;29.90;52.90;;;;;;4995902;28;20277;-70
2023/03/02 05:18:49;;;;;;;2.90;1.00;;;30.80;51.50;;;;;;4995223;28;20188;-72
2023/03/02 05:21:17;;;;;;;2.83;1.23;;;30.70;52.20;;;;;;4992897;28;20196;-71
2023/03/02 05:23:45;;;;;;;2.78;0.95;;;30.60;53.00;;;;;;5003328;28;20625;-75
2023/03/02 05:26:13;;;;;;;3.33;1.08;;;30.60;52.50;;;;;;5003476;28;20203;-67
2023/03/02 05:28:41;;;;;;;3.85;1.33;;;30.50;51.00;;;;;;5010795;28;20297;-67
2023/03/02 05:31:13;;;;;;;2.42;1.02;;;30.00;51.90;;;;;;4996324;28;20193;-71
2023/03/02 05:33:40;;;;;;;2.17;1.00;;;30.00;52.10;;;;;;5001966;28;20269;-70
2023/03/02 05:36:07;;;;;;;4.88;1.35;;;30.00;52.70;;;;;;5001500;28;20185;-71
2023/03/02 05:38:35;;;;;;;2.65;0.90;;;30.00;52.60;;;;;;5015485;28;20224;-66
2023/03/02 05:41:03;;;;;;;2.13;0.90;;;30.30;53.00;;;;;;4995625;28;20218;-70
2023/03/02 05:43:30;;;;;;;3.38;0.88;;;30.80;52.00;;;;;;4995895;28;20182;-73
2023/03/02 05:45:59;;;;;;;1.52;1.00;;;30.10;52.30;;;;;;5011550;28;20177;-68
2023/03/02 05:48:29;;;;;;;6.00;1.40;;;30.30;53.60;;;;;;4977578;28;20618;-67
2023/03/02 05:50:57;;;;;;;1.65;1.08;;;30.50;53.20;;;;;;5003507;28;20224;-66
2023/03/02 05:53:25;;;;;;;2.65;0.80;;;30.60;52.30;;;;;;4996593;28;20184;-67
2023/03/02 05:55:53;;;;;;;7.85;1.00;;;30.50;53.40;;;;;;5000936;28;20180;-70
2023/03/02 05:58:20;;;;;;;2.53;1.00;;;31.40;49.40;;;;;;4989984;28;20214;-69
2023/03/02 06:00:48;;;;;;;2.50;1.00;;;30.40;51.10;;;;;;5006074;28;20216;-69
2023/03/02 06:03:16;;;;;;;3.95;1.10;;;29.90;52.40;;;;;;5010308;28;20247;-68
2023/03/02 06:05:43;;;;;;;2.60;0.95;;;30.00;51.90;;;;;;5011358;28;20185;-68
2023/03/02 06:08:11;;;;;;;2.83;0.93;;;30.30;51.50;;;;;;5014239;28;20711;-71
2023/03/02 06:10:38;;;;;;;3.70;1.20;;;31.00;51.20;;;;;;5015155;28;20722;-71
2023/03/02 06:13:05;;;;;;;2.85;1.33;;;30.80;52.00;;;;;;5015365;28;20658;-67
2023/03/02 06:15:33;;;;;;;1.10;0.90;;;30.80;51.10;;;;;;5000211;28;20216;-67
2023/03/02 06:18:00;;;;;;;4.13;1.10;;;31.10;51.10;;;;;;5008272;28;20178;-66
2023/03/02 06:20:27;;;;;;;5.32;1.30;;;30.70;52.50;;;;;;5014602;28;20181;-68
2023/03/02 06:22:55;;;;;;;2.30;1.15;;;31.60;50.10;;;;;;5015376;28;20165;-67
2023/03/02 06:25:24;;;;;;;3.60;1.23;;;30.60;52.90;;;;;;5015200;28;20272;-68
2023/03/02 06:27:52;;;;;;;2.75;1.23;;;30.50;54.90;;;;;;4999878;28;20170;-68
2023/03/02 06:30:22;;;;;;;2.33;1.15;;;30.70;53.10;;;;;;4995911;28;20205;-67
2023/03/02 06:32:50;;;;;;;3.85;1.05;;;30.60;51.80;;;;;;4994973;28;20542;-68
2023/03/02 06:35:17;;;;;;;4.28;1.20;;;30.30;53.30;;;;;;4993112;28;20281;-65
2023/03/02 06:37:45;;;;;;;3.88;1.30;;;29.70;54.50;;;;;;4994888;28;20193;-68
2023/03/02 06:40:13;;;;;;;3.20;1.30;;;29.50;55.00;;;;;;4993853;28;20182;-66
2023/03/02 06:42:42;;;;;;;5.28;1.58;;;30.20;53.00;;;;;;4994653;28;20233;-67
2023/03/02 06:45:10;;;;;;;4.93;1.77;;;29.80;55.20;;;;;;4994196;28;20224;-67
2023/03/02 06:47:37;;;;;;;3.90;1.30;;;30.10;54.30;;;;;;4993830;28;20546;-66
2023/03/02 06:50:05;;;;;;;4.78;1.30;;;29.30;56.20;;;;;;4992480;28;20332;-67
2023/03/02 06:52:34;;;;;;;4.43;1.40;;;29.10;56.50;;;;;;4991061;28;20632;-66
2023/03/02 06:55:01;;;;;;;4.60;1.70;;;29.50;56.20;;;;;;4989733;28;20671;-66
2023/03/02 06:57:32;;;;;;;4.65;1.20;;;29.70;55.00;;;;;;4990746;28;20182;-69
2023/03/02 07:00:17;;;;;;;6.18;1.55;;;30.10;53.60;;;;;;4978036;28;20632;-67
2023/03/02 07:02:44;;;;;;;4.35;1.38;;;30.30;53.70;;;;;;4992874;28;20240;-67
2023/03/02 07:05:12;;;;;;;6.10;1.83;;;30.20;53.20;;;;;;4994067;28;20267;-66
2023/03/02 07:07:40;;;;;;;4.28;1.20;;;30.20;52.40;;;;;;4994227;28;20229;-68
2023/03/02 07:10:09;;;;;;;7.75;1.17;;;29.40;52.80;;;;;;4992562;28;20228;-67
2023/03/02 07:12:37;;;;;;;4.28;1.20;;;28.70;55.70;;;;;;4992015;28;20225;-65
2023/03/02 07:15:09;;;;;;;6.27;1.50;;;28.90;55.80;;;;;;4994730;28;20201;-65
2023/03/02 07:17:38;;;;;;;3.37;1.40;;;29.50;54.80;;;;;;4990162;28;20659;-65
2023/03/02 07:20:06;;;;;;;4.33;1.13;;;29.40;55.80;;;;;;4993592;28;20190;-67
2023/03/02 07:22:34;;;;;;;2.60;1.20;;;29.20;55.60;;;;;;4992718;28;20185;-67
2023/03/02 07:25:01;;;;;;;2.73;1.17;;;29.30;55.70;;;;;;4992808;28;20657;-67
2023/03/02 07:27:28;;;;;;;7.03;1.77;;;29.20;55.50;;;;;;4991401;28;20209;-69
2023/03/02 07:29:56;;;;;;;6.87;1.70;;;28.80;57.70;;;;;;4993281;28;20355;-71
2023/03/02 07:32:23;;;;;;;2.77;1.40;;;29.00;56.40;;;;;;4994307;28;20260;-70
2023/03/02 07:34:51;;;;;;;3.80;1.70;;;28.80;56.60;;;;;;4991157;28;20190;-67
2023/03/02 07:37:18;;;;;;;4.87;1.50;;;28.50;58.20;;;;;;4986293;28;20216;-67
2023/03/02 07:39:48;;;;;;;5.50;1.33;;;28.50;57.50;;;;;;5003526;28;20990;-67
2023/03/02 07:42:16;;;;;;;6.70;1.47;;;28.40;58.90;;;;;;5001938;28;20188;-66
2023/03/02 07:44:43;;;;;;;3.50;1.27;;;28.50;58.00;;;;;;5005487;28;20648;-66
2023/03/02 07:47:11;;;;;;;7.10;1.77;;;28.60;58.90;;;;;;4996785;28;20199;-67
2023/03/02 07:49:38;;;;;;;5.00;1.80;;;28.30;59.00;;;;;;5003006;28;20749;-72
2023/03/02 07:52:06;;;;;;;4.13;1.80;;;28.30;59.70;;;;;;4991541;28;20205;-68
2023/03/02 07:54:33;;;;;;;4.03;1.43;;;27.90;59.80;;;;;;5006616;28;20193;-69
2023/03/02 07:57:01;;;;;;;4.00;1.17;;;27.60;61.40;;;;;;4997877;28;20248;-67
2023/03/02 07:59:28;;;;;;;5.07;1.57;;;26.80;63.80;;;;;;4982128;28;20190;-67
2023/03/02 08:01:57;;;;;;;5.63;1.50;;;26.00;67.00;;;;;;4999048;28;20252;-68
2023/03/02 08:04:25;;;;;;;4.20;1.40;;;25.50;68.70;;;;;;5012850;28;20255;-66
2023/03/02 08:06:52;;;;;;;4.33;1.50;;;25.30;69.20;;;;;;4995314;28;20185;-66
2023/03/02 08:09:19;;;;;;;6.37;1.67;;;24.90;70.40;;;;;;4999808;28;20700;-68
2023/03/02 08:11:47;;;;;;;4.00;1.33;;;24.70;70.80;;;;;;4992451;28;20248;-68
2023/03/02 08:14:14;;;;;;;4.37;1.43;;;24.60;71.30;;;;;;4999663;28;20217;-71
2023/03/02 08:16:41;;;;;;;4.37;2.00;;;24.50;72.10;;;;;;4997819;28;20593;-67
2023/03/02 08:19:09;;;;;;;4.47;1.70;;;24.50;72.40;;;;;;4994016;28;20213;-68
2023/03/02 08:21:36;;;;;;;5.40;1.50;;;24.40;72.70;;;;;;4994935;28;20205;-68
2023/03/02 08:24:04;;;;;;;4.00;1.47;;;24.30;73.10;;;;;;4992900;28;20281;-65
2023/03/02 08:26:31;;;;;;;3.37;1.80;;;24.20;73.40;;;;;;4990740;28;20190;-66
2023/03/02 08:28:59;;;;;;;8.67;2.10;;;24.10;73.40;;;;;;4990255;28;20210;-66
2023/03/02 08:31:27;;;;;;;5.47;1.70;;;24.20;73.60;;;;;;4992032;28;20548;-66
2023/03/02 08:33:55;;;;;;;6.53;1.63;;;24.10;73.70;;;;;;4992880;28;20273;-65
2023/03/02 08:36:22;;;;;;;7.77;2.40;;;24.00;73.90;;;;;;4991213;28;20648;-65
2023/03/02 08:38:50;;;;;;;5.93;1.80;;;24.00;74.00;;;;;;4992259;28;20185;-65
2023/03/02 08:41:22;;;;;;;7.77;1.80;;;23.90;74.50;;;;;;4999144;28;20189;-68
2023/03/02 08:43:52;;;;;;;5.60;1.70;;;23.80;74.50;;;;;;5006125;28;20181;-65
2023/03/02 08:46:20;;;;;;;7.57;1.97;;;23.80;74.80;;;;;;4991860;28;20182;-65
2023/03/02 08:48:51;;;;;;;6.03;1.80;;;23.80;74.70;;;;;;4990566;28;20209;-65
2023/03/02 08:51:22;;;;;;;5.07;1.70;;;23.80;74.70;;;;;;4993589;28;20265;-66
2023/03/02 08:53:51;;;;;;;3.53;1.63;;;23.80;75.10;;;;;;4994989;28;20185;-65
2023/03/02 08:56:27;;;;;;;6.77;1.90;;;23.80;75.00;;;;;;4995427;28;20193;-65
2023/03/02 08:58:57;;;;;;;3.30;1.70;;;23.70;75.20;;;;;;4990634;28;20213;-65
2023/03/02 09:01:28;;;;;;;6.37;1.60;;;23.60;75.30;;;;;;4992727;28;20181;-65
2023/03/02 09:03:58;;;;;;;6.00;1.70;;;23.60;75.40;;;;;;4992401;28;20186;-66
2023/03/02 09:06:26;;;;;;;6.53;1.80;;;23.60;75.50;;;;;;4991948;28;20190;-66
2023/03/02 09:08:54;;;;;;;5.43;1.63;;;23.50;75.70;;;;;;4992991;28;20213;-65
2023/03/02 09:11:21;;;;;;;5.17;1.57;;;23.50;75.90;;;;;;4992176;28;20225;-65
2023/03/02 09:13:49;;;;;;;8.87;1.90;;;23.50;75.90;;;;;;4991740;28;20245;-65
2023/03/02 09:16:19;;;;;;;4.73;1.70;;;23.50;76.00;;;;;;4992527;28;20192;-65
2023/03/02 09:18:47;;;;;;;5.17;1.80;;;23.40;76.00;;;;;;4990870;28;20202;-70
2023/03/02 09:21:15;;;;;;;5.87;1.80;;;23.40;76.10;;;;;;4993274;28;20185;-68
2023/03/02 09:23:42;;;;;;;8.83;1.83;;;23.40;76.30;;;;;;5009754;28;20227;-65
2023/03/02 09:26:10;;;;;;;7.23;1.70;;;23.40;76.30;;;;;;4986722;28;20271;-67
2023/03/02 09:28:38;;;;;;;6.53;1.70;;;23.30;76.50;;;;;;4991707;28;20687;-68
2023/03/02 09:31:07;;;;;;;6.27;1.70;;;23.30;76.80;;;;;;4988959;28;20334;-70
2023/03/02 09:33:35;;;;;;;3.47;1.70;;;23.30;76.80;;;;;;4998873;28;20239;-68
2023/03/02 09:36:07;;;;;;;6.10;1.60;;;23.30;77.00;;;;;;4992903;28;20182;-68
2023/03/02 09:38:34;;;;;;;6.03;1.90;;;23.30;77.00;;;;;;5001510;28;20188;-66
2023/03/02 09:41:21;;;;;;;10.00;1.73;;;23.30;77.10;;;;;;5000667;28;20189;-69
2023/03/02 09:44:09;;;;;;;4.33;1.90;;;23.30;77.10;;;;;;4987723;28;20654;-69
2023/03/02 09:46:49;;;;;;;5.90;1.70;;;23.30;77.30;;;;;;5000410;28;20185;-68
2023/03/02 09:49:43;;;;;;;5.00;1.77;;;23.30;77.50;;;;;;4994678;28;20213;-67
2023/03/02 09:52:44;;;;;;;5.23;1.77;;;23.20;77.60;;;;;;5011443;28;20640;-66
2023/03/02 09:55:27;;;;;;;6.20;1.97;;;23.20;77.80;;;;;;4993929;28;20197;-70
2023/03/02 09:57:55;;;;;;;4.83;1.97;;;23.20;77.90;;;;;;5008502;28;20189;-66
2023/03/02 10:00:39;;;;;;;5.40;2.20;;;23.10;77.80;;;;;;4996986;28;20182;-69
2023/03/02 10:03:19;;;;;;;4.93;1.80;;;23.20;78.00;;;;;;5015881;28;20687;-68
2023/03/02 10:05:49;;;;;;;4.20;1.50;;;23.10;78.00;;;;;;5012416;28;20535;-66
2023/03/02 10:08:25;;;;;;;3.60;1.63;;;23.10;78.20;;;;;;4999394;28;20654;-67
2023/03/02 10:11:31;;;;;;;6.30;1.73;;;23.10;78.30;;;;;;5014392;28;20622;-67
2023/03/02 10:14:06;;;;;;;7.33;1.50;;;23.10;78.50;;;;;;5007778;28;20648;-66
2023/03/02 10:16:53;;;;;;;5.57;1.80;;;23.10;78.70;;;;;;5005217;28;20180;-69
2023/03/02 10:19:26;;;;;;;7.43;1.73;;;23.10;78.90;;;;;;4994043;28;20174;-67
2023/03/02 10:22:17;;;;;;;3.47;1.70;;;23.10;78.70;;;;;;4994773;28;20645;-66
2023/03/02 10:25:21;;;;;;;5.37;1.80;;;23.10;78.90;;;;;;4992271;28;20575;-68
2023/03/02 10:27:54;;;;;;;14.67;2.70;;;23.00;79.10;;;;;;4991788;28;20674;-68
2023/03/02 10:30:26;;;;;;;4.70;1.67;;;23.00;79.30;;;;;;4997648;28;20221;-66
2023/03/02 10:32:57;;;;;;;14.27;2.07;;;23.00;79.30;;;;;;4996253;28;20305;-66
2023/03/02 10:35:28;;;;;;;5.10;1.60;;;23.00;79.40;;;;;;4997813;28;20256;-71
2023/03/02 10:38:03;;;;;;;3.43;1.43;;;23.00;79.40;;;;;;5012805;28;20192;-68
2023/03/02 10:40:42;;;;;;;5.13;1.40;;;23.00;79.40;;;;;;5015328;28;20165;-67
2023/03/02 10:43:44;;;;;;;8.00;2.23;;;22.90;79.50;;;;;;5005550;28;20251;-72
2023/03/02 10:46:13;;;;;;;7.03;1.97;;;22.90;79.70;;;;;;5003911;28;20869;-66
2023/03/02 10:49:00;;;;;;;6.47;1.70;;;22.80;79.60;;;;;;5005977;28;20295;-69
2023/03/02 10:51:36;;;;;;;5.67;1.67;;;22.90;79.80;;;;;;5010230;28;20185;-66
2023/03/02 10:54:09;;;;;;;4.63;1.57;;;22.80;79.80;;;;;;5005426;28;20201;-65
2023/03/02 10:56:38;;;;;;;5.97;1.87;;;22.90;79.90;;;;;;4997245;28;20182;-65
2023/03/02 10:59:31;;;;;;;6.33;2.10;;;22.90;79.90;;;;;;4994838;28;20208;-67
2023/03/02 11:02:11;;;;;;;7.70;1.63;;;22.90;80.00;;;;;;5002785;28;20180;-69
2023/03/02 11:04:38;;;;;;;3.67;1.50;;;22.80;80.00;;;;;;4998983;28;20186;-67
2023/03/02 11:07:18;;;;;;;9.77;1.87;;;22.80;80.00;;;;;;4992799;28;20185;-69
2023/03/02 11:09:57;;;;;;;6.03;1.80;;;22.80;80.10;;;;;;4994706;28;20221;-67
2023/03/02 11:12:25;;;;;;;5.93;1.50;;;22.80;80.20;;;;;;4994486;28;20229;-65
2023/03/02 11:15:28;;;;;;;8.53;1.77;;;22.80;80.20;;;;;;4997036;28;20182;-66
2023/03/02 11:18:05;;;;;;;5.17;1.50;;;22.80;80.30;;;;;;4992338;28;20178;-68
2023/03/02 11:20:39;;;;;;;5.97;1.63;;;22.80;80.40;;;;;;4999169;28;20648;-69
2023/03/02 11:23:23;;;;;;;6.47;1.80;;;22.80;80.20;;;;;;4997371;28;20232;-66
2023/03/02 11:26:00;;;;;;;6.30;1.83;;;22.80;80.30;;;;;;4994539;28;20269;-66
2023/03/02 11:29:03;;;;;;;6.43;1.50;;;22.80;80.00;;;;;;5006606;28;20181;-66
2023/03/02 11:31:38;;;;;;;6.63;1.70;;;22.80;80.10;;;;;;4959656;28;20196;-66
2023/03/02 11:34:10;;;;;;;4.97;1.40;;;22.80;80.00;;;;;;4994616;28;20186;-69
2023/03/02 11:36:57;;;;;;;8.53;1.80;;;22.80;79.80;;;;;;4989657;28;20317;-65
2023/03/02 11:39:52;;;;;;;6.53;2.50;;;22.80;79.60;;;;;;5006575;28;20660;-67
2023/03/02 11:42:23;;;;;;;3.87;1.70;;;22.80;79.60;;;;;;4976926;28;20178;-66
2023/03/02 11:44:51;;;;;;;6.23;1.70;;;22.80;79.20;;;;;;5007665;28;20177;-66
2023/03/02 11:47:20;;;;;;;5.30;1.97;;;22.70;79.10;;;;;;5010480;28;20490;-70
2023/03/02 11:49:54;;;;;;;6.67;1.83;;;22.70;79.30;;;;;;4997185;28;20575;-69
2023/03/02 11:52:29;;;;;;;7.23;1.83;;;22.80;79.20;;;;;;4983835;28;20637;-69
2023/03/02 11:55:18;;;;;;;5.23;2.27;;;22.80;79.10;;;;;;5000790;28;20666;-67
2023/03/02 11:57:52;;;;;;;5.00;2.00;;;22.80;79.10;;;;;;4995682;28;20197;-69
2023/03/02 12:00:41;;;;;;;7.47;2.30;;;22.80;79.10;;;;;;5003175;28;20291;-70
2023/03/02 12:03:14;;;;;;;8.53;2.40;;;22.70;78.90;;;;;;4999313;28;20520;-71
2023/03/02 12:05:44;;;;;;;4.83;1.73;;;22.70;79.00;;;;;;5003797;28;20188;-68
2023/03/02 12:08:21;;;;;;;9.47;1.90;;;22.70;78.60;;;;;;4998870;28;20539;-65
2023/03/02 12:11:05;;;;;;;12.80;4.83;;;22.70;78.50;;;;;;5008681;28;20229;-69
2023/03/02 12:13:34;;;;;;;7.07;2.60;;;22.70;78.80;;;;;;4979298;28;20200;-66
2023/03/02 12:16:02;;;;;;;13.90;4.73;;;22.60;79.10;;;;;;4996018;28;20197;-65
2023/03/02 12:18:42;;;;;;;27.60;8.40;;;22.60;79.20;;;;;;5013272;28;20185;-69
2023/03/02 12:21:14;;;;;;;10.73;3.27;;;22.60;79.20;;;;;;4992486;28;20186;-66
2023/03/02 12:23:50;;;;;;;12.33;3.53;;;22.60;79.30;;;;;;4997481;28;20177;-69
2023/03/02 12:26:20;;;;;;;18.03;4.03;;;22.50;79.60;;;;;;5008209;28;20593;-66
2023/03/02 12:29:09;;;;;;;13.33;6.07;;;22.50;79.60;;;;;;4993729;28;20210;-65
2023/03/02 12:31:46;;;;;;;14.77;4.20;;;22.50;79.70;;;;;;4997018;28;20185;-66
2023/03/02 12:34:34;;;;;;;10.67;3.23;;;22.50;79.80;;;;;;4995557;28;20190;-67
2023/03/02 12:37:13;;;;;;;6.70;2.50;;;22.50;79.90;;;;;;5002893;28;20185;-67
2023/03/02 12:40:01;;;;;;;10.53;2.87;;;22.40;79.90;;;;;;4980271;28;20189;-67
2023/03/02 12:42:31;;;;;;;7.47;1.90;;;22.40;79.90;;;;;;5002897;28;20182;-65
2023/03/02 12:45:32;;;;;;;7.33;2.13;;;22.40;80.00;;;;;;4996775;28;20685;-66
2023/03/02 12:48:05;;;;;;;5.97;2.13;;;22.40;80.20;;;;;;4985874;28;20643;-67
2023/03/02 12:50:38;;;;;;;6.47;2.17;;;22.40;80.20;;;;;;4997933;28;20229;-67
2023/03/02 12:53:14;;;;;;;7.17;2.07;;;22.40;80.20;;;;;;5001053;28;21524;-66
2023/03/02 12:55:41;;;;;;;8.93;2.10;;;22.30;80.30;;;;;;5002431;28;20653;-69
2023/03/02 12:58:21;;;;;;;8.03;2.33;;;22.30;80.40;;;;;;4992757;28;20189;-68
2023/03/02 13:00:54;;;;;;;7.23;2.03;;;22.40;80.40;;;;;;5002861;28;20178;-67
2023/03/02 13:03:22;;;;;;;8.50;2.00;;;22.30;80.50;;;;;;4999381;28;20185;-67
2023/03/02 13:05:49;;;;;;;6.63;1.90;;;22.30;80.50;;;;;;5007893;28;20185;-68
2023/03/02 13:08:26;;;;;;;6.40;2.00;;;22.30;80.70;;;;;;5006609;28;20277;-67
2023/03/02 13:10:59;;;;;;;4.43;1.70;;;22.20;80.70;;;;;;4999257;28;20686;-67